sensor_id;sensor_type;location;lat;lon;timestamp;P1;durP1;ratioP1;P2;durP2;ratioP2
56680;SDS011;42558;52.388;13.390;2023-04-21T00:00:15;19.38;;;13.11;;
56680;SDS011;42558;52.388;13.390;2023-04-21T00:02:45;23.94;;;11.97;;
56680;SDS011;42558;52.388;13.390;2023-04-21T00:05:13;23.37;;;12.73;;
56680;SDS011;42558;52.388;13.390;2023-04-21T00:07:42;22.04;;;11.59;;
56680;SDS011;42558;52.388;13.390;2023-04-21T00:10:11;21.47;;;12.16;;
56680;SDS011;42558;52.388;13.390;2023-04-21T00:12:39;26.79;;;14.63;;
56680;SDS011;42558;52.388;13.390;2023-04-21T00:15:08;22.80;;;13.49;;
56680;SDS011;42558;52.388;13.390;2023-04-21T00:17:36;29.45;;;12.16;;
56680;SDS011;42558;52.388;13.390;2023-04-21T00:20:05;19.95;;;11.78;;
56680;SDS011;42558;52.388;13.390;2023-04-21T00:22:32;20.71;;;11.97;;
56680;SDS011;42558;52.388;13.390;2023-04-21T00:25:01;26.03;;;12.54;;
56680;SDS011;42558;52.388;13.390;2023-04-21T00:27:29;28.88;;;15.20;;
56680;SDS011;42558;52.388;13.390;2023-04-21T00:29:58;23.94;;;13.87;;
56680;SDS011;42558;52.388;13.390;2023-04-21T00:32:26;28.50;;;13.87;;
56680;SDS011;42558;52.388;13.390;2023-04-21T00:34:55;29.45;;;12.92;;
56680;SDS011;42558;52.388;13.390;2023-04-21T00:37:23;27.17;;;14.25;;
56680;SDS011;42558;52.388;13.390;2023-04-21T00:39:53;28.12;;;13.49;;
56680;SDS011;42558;52.388;13.390;2023-04-21T00:42:20;23.18;;;14.44;;
56680;SDS011;42558;52.388;13.390;2023-04-21T00:44:49;21.66;;;12.92;;
56680;SDS011;42558;52.388;13.390;2023-04-21T00:47:18;33.25;;;15.01;;
56680;SDS011;42558;52.388;13.390;2023-04-21T00:49:46;23.94;;;14.44;;
56680;SDS011;42558;52.388;13.390;2023-04-21T00:52:16;24.70;;;15.01;;
56680;SDS011;42558;52.388;13.390;2023-04-21T00:54:44;25.08;;;14.25;;
56680;SDS011;42558;52.388;13.390;2023-04-21T00:57:14;22.42;;;15.58;;
56680;SDS011;42558;52.388;13.390;2023-04-21T00:59:43;26.60;;;15.01;;
56680;SDS011;42558;52.388;13.390;2023-04-21T01:02:14;27.17;;;15.77;;
56680;SDS011;42558;52.388;13.390;2023-04-21T01:04:43;26.22;;;14.63;;
56680;SDS011;42558;52.388;13.390;2023-04-21T01:07:13;32.68;;;15.77;;
56680;SDS011;42558;52.388;13.390;2023-04-21T01:09:43;26.79;;;14.44;;
56680;SDS011;42558;52.388;13.390;2023-04-21T01:12:14;26.79;;;15.20;;
56680;SDS011;42558;52.388;13.390;2023-04-21T01:14:47;27.55;;;14.63;;
56680;SDS011;42558;52.388;13.390;2023-04-21T01:17:14;29.64;;;13.30;;
56680;SDS011;42558;52.388;13.390;2023-04-21T01:19:46;30.02;;;16.34;;
56680;SDS011;42558;52.388;13.390;2023-04-21T01:22:17;26.60;;;14.82;;
56680;SDS011;42558;52.388;13.390;2023-04-21T01:24:48;26.98;;;16.72;;
56680;SDS011;42558;52.388;13.390;2023-04-21T01:27:18;23.75;;;15.39;;
56680;SDS011;42558;52.388;13.390;2023-04-21T01:29:50;23.75;;;15.58;;
56680;SDS011;42558;52.388;13.390;2023-04-21T01:32:23;26.60;;;15.39;;
56680;SDS011;42558;52.388;13.390;2023-04-21T01:34:56;25.84;;;15.20;;
56680;SDS011;42558;52.388;13.390;2023-04-21T01:37:29;26.41;;;16.34;;
56680;SDS011;42558;52.388;13.390;2023-04-21T01:40:01;28.88;;;15.96;;
56680;SDS011;42558;52.388;13.390;2023-04-21T01:42:32;29.07;;;15.77;;
56680;SDS011;42558;52.388;13.390;2023-04-21T01:45:03;29.26;;;16.34;;
56680;SDS011;42558;52.388;13.390;2023-04-21T01:47:32;32.11;;;17.29;;
56680;SDS011;42558;52.388;13.390;2023-04-21T01:49:59;25.08;;;16.72;;
56680;SDS011;42558;52.388;13.390;2023-04-21T01:52:28;27.74;;;17.48;;
56680;SDS011;42558;52.388;13.390;2023-04-21T01:54:59;21.47;;;15.96;;
56680;SDS011;42558;52.388;13.390;2023-04-21T01:57:29;27.36;;;17.29;;
56680;SDS011;42558;52.388;13.390;2023-04-21T01:59:59;32.11;;;18.24;;
56680;SDS011;42558;52.388;13.390;2023-04-21T02:02:29;27.55;;;17.29;;
56680;SDS011;42558;52.388;13.390;2023-04-21T02:04:59;28.12;;;19.19;;
56680;SDS011;42558;52.388;13.390;2023-04-21T02:07:29;25.46;;;18.24;;
56680;SDS011;42558;52.388;13.390;2023-04-21T02:09:59;26.03;;;17.48;;
56680;SDS011;42558;52.388;13.390;2023-04-21T02:12:29;27.55;;;17.29;;
56680;SDS011;42558;52.388;13.390;2023-04-21T02:14:58;30.59;;;18.05;;
56680;SDS011;42558;52.388;13.390;2023-04-21T02:17:28;29.07;;;18.05;;
56680;SDS011;42558;52.388;13.390;2023-04-21T02:19:59;28.69;;;18.24;;
56680;SDS011;42558;52.388;13.390;2023-04-21T02:22:29;32.11;;;20.14;;
56680;SDS011;42558;52.388;13.390;2023-04-21T02:25:00;33.82;;;19.00;;
56680;SDS011;42558;52.388;13.390;2023-04-21T02:27:29;32.11;;;19.57;;
56680;SDS011;42558;52.388;13.390;2023-04-21T02:29:59;36.10;;;20.14;;
56680;SDS011;42558;52.388;13.390;2023-04-21T02:32:29;28.88;;;20.14;;
56680;SDS011;42558;52.388;13.390;2023-04-21T02:34:58;34.58;;;19.38;;
56680;SDS011;42558;52.388;13.390;2023-04-21T02:37:26;31.92;;;19.00;;
56680;SDS011;42558;52.388;13.390;2023-04-21T02:39:55;28.69;;;20.33;;
56680;SDS011;42558;52.388;13.390;2023-04-21T02:42:23;26.79;;;17.67;;
56680;SDS011;42558;52.388;13.390;2023-04-21T02:44:51;35.91;;;19.76;;
56680;SDS011;42558;52.388;13.390;2023-04-21T02:47:20;29.26;;;20.14;;
56680;SDS011;42558;52.388;13.390;2023-04-21T02:49:49;32.68;;;19.76;;
56680;SDS011;42558;52.388;13.390;2023-04-21T02:52:17;31.16;;;20.33;;
56680;SDS011;42558;52.388;13.390;2023-04-21T02:54:45;28.12;;;20.52;;
56680;SDS011;42558;52.388;13.390;2023-04-21T02:57:14;25.84;;;19.95;;
56680;SDS011;42558;52.388;13.390;2023-04-21T02:59:42;28.31;;;21.09;;
56680;SDS011;42558;52.388;13.390;2023-04-21T03:02:10;34.58;;;20.33;;
56680;SDS011;42558;52.388;13.390;2023-04-21T03:04:39;30.78;;;20.52;;
56680;SDS011;42558;52.388;13.390;2023-04-21T03:07:11;33.82;;;21.09;;
56680;SDS011;42558;52.388;13.390;2023-04-21T03:09:42;38.19;;;22.04;;
56680;SDS011;42558;52.388;13.390;2023-04-21T03:12:12;36.67;;;22.42;;
56680;SDS011;42558;52.388;13.390;2023-04-21T03:14:47;33.82;;;18.81;;
56680;SDS011;42558;52.388;13.390;2023-04-21T03:17:16;30.78;;;19.95;;
56680;SDS011;42558;52.388;13.390;2023-04-21T03:19:46;32.11;;;20.33;;
56680;SDS011;42558;52.388;13.390;2023-04-21T03:22:13;34.20;;;21.85;;
56680;SDS011;42558;52.388;13.390;2023-04-21T03:24:41;35.91;;;22.80;;
56680;SDS011;42558;52.388;13.390;2023-04-21T03:27:11;30.78;;;20.71;;
56680;SDS011;42558;52.388;13.390;2023-04-21T03:29:40;37.81;;;22.99;;
56680;SDS011;42558;52.388;13.390;2023-04-21T03:32:10;28.50;;;19.57;;
56680;SDS011;42558;52.388;13.390;2023-04-21T03:34:40;30.78;;;20.90;;
56680;SDS011;42558;52.388;13.390;2023-04-21T03:37:11;30.21;;;19.57;;
56680;SDS011;42558;52.388;13.390;2023-04-21T03:39:40;31.54;;;21.09;;
56680;SDS011;42558;52.388;13.390;2023-04-21T03:42:12;29.64;;;20.90;;
56680;SDS011;42558;52.388;13.390;2023-04-21T03:44:44;35.91;;;20.71;;
56680;SDS011;42558;52.388;13.390;2023-04-21T03:47:15;30.21;;;21.85;;
56680;SDS011;42558;52.388;13.390;2023-04-21T03:49:45;31.35;;;21.66;;
56680;SDS011;42558;52.388;13.390;2023-04-21T03:52:15;26.79;;;19.76;;
56680;SDS011;42558;52.388;13.390;2023-04-21T03:54:44;34.20;;;20.71;;
56680;SDS011;42558;52.388;13.390;2023-04-21T03:57:15;33.44;;;20.71;;
56680;SDS011;42558;52.388;13.390;2023-04-21T03:59:45;29.83;;;20.33;;
56680;SDS011;42558;52.388;13.390;2023-04-21T04:02:15;28.31;;;19.19;;
56680;SDS011;42558;52.388;13.390;2023-04-21T04:04:45;29.64;;;20.33;;
56680;SDS011;42558;52.388;13.390;2023-04-21T04:07:16;31.73;;;21.47;;
56680;SDS011;42558;52.388;13.390;2023-04-21T04:09:46;32.11;;;20.90;;
56680;SDS011;42558;52.388;13.390;2023-04-21T04:12:16;30.21;;;20.71;;
56680;SDS011;42558;52.388;13.390;2023-04-21T04:14:45;28.31;;;22.23;;
56680;SDS011;42558;52.388;13.390;2023-04-21T04:17:15;29.07;;;22.04;;
56680;SDS011;42558;52.388;13.390;2023-04-21T04:19:45;35.15;;;22.61;;
56680;SDS011;42558;52.388;13.390;2023-04-21T04:22:15;33.25;;;22.99;;
56680;SDS011;42558;52.388;13.390;2023-04-21T04:24:45;31.35;;;21.47;;
56680;SDS011;42558;52.388;13.390;2023-04-21T04:27:15;37.62;;;22.23;;
56680;SDS011;42558;52.388;13.390;2023-04-21T04:29:43;27.93;;;20.14;;
56680;SDS011;42558;52.388;13.390;2023-04-21T04:32:12;34.39;;;22.61;;
56680;SDS011;42558;52.388;13.390;2023-04-21T04:34:41;30.02;;;21.28;;
56680;SDS011;42558;52.388;13.390;2023-04-21T04:37:09;29.64;;;20.52;;
56680;SDS011;42558;52.388;13.390;2023-04-21T04:39:38;30.59;;;21.09;;
56680;SDS011;42558;52.388;13.390;2023-04-21T04:42:07;33.63;;;21.85;;
56680;SDS011;42558;52.388;13.390;2023-04-21T04:44:41;34.58;;;21.28;;
56680;SDS011;42558;52.388;13.390;2023-04-21T04:47:10;30.78;;;21.28;;
56680;SDS011;42558;52.388;13.390;2023-04-21T04:49:41;33.44;;;22.04;;
56680;SDS011;42558;52.388;13.390;2023-04-21T04:52:11;31.35;;;22.42;;
56680;SDS011;42558;52.388;13.390;2023-04-21T04:54:40;38.95;;;23.37;;
56680;SDS011;42558;52.388;13.390;2023-04-21T04:57:10;31.54;;;21.28;;
56680;SDS011;42558;52.388;13.390;2023-04-21T04:59:40;31.16;;;22.61;;
56680;SDS011;42558;52.388;13.390;2023-04-21T05:02:11;35.15;;;22.99;;
56680;SDS011;42558;52.388;13.390;2023-04-21T05:04:40;32.11;;;22.04;;
56680;SDS011;42558;52.388;13.390;2023-04-21T05:07:10;32.87;;;21.66;;
56680;SDS011;42558;52.388;13.390;2023-04-21T05:09:40;33.63;;;22.42;;
56680;SDS011;42558;52.388;13.390;2023-04-21T05:12:12;29.07;;;20.90;;
56680;SDS011;42558;52.388;13.390;2023-04-21T05:14:45;30.21;;;21.66;;
56680;SDS011;42558;52.388;13.390;2023-04-21T05:17:13;33.25;;;22.80;;
56680;SDS011;42558;52.388;13.390;2023-04-21T05:19:42;36.10;;;22.99;;
56680;SDS011;42558;52.388;13.390;2023-04-21T05:22:12;30.40;;;21.85;;
56680;SDS011;42558;52.388;13.390;2023-04-21T05:24:42;37.62;;;21.47;;
56680;SDS011;42558;52.388;13.390;2023-04-21T05:27:12;31.54;;;22.61;;
56680;SDS011;42558;52.388;13.390;2023-04-21T05:29:42;34.20;;;21.66;;
56680;SDS011;42558;52.388;13.390;2023-04-21T05:32:12;31.73;;;21.47;;
56680;SDS011;42558;52.388;13.390;2023-04-21T05:34:42;28.69;;;21.66;;
56680;SDS011;42558;52.388;13.390;2023-04-21T05:37:11;30.21;;;21.66;;
56680;SDS011;42558;52.388;13.390;2023-04-21T05:39:41;30.78;;;22.99;;
56680;SDS011;42558;52.388;13.390;2023-04-21T05:42:12;32.87;;;23.18;;
56680;SDS011;42558;52.388;13.390;2023-04-21T05:44:43;34.77;;;22.99;;
56680;SDS011;42558;52.388;13.390;2023-04-21T05:47:13;32.49;;;22.80;;
56680;SDS011;42558;52.388;13.390;2023-04-21T05:49:43;29.83;;;21.47;;
56680;SDS011;42558;52.388;13.390;2023-04-21T05:52:18;33.25;;;21.85;;
56680;SDS011;42558;52.388;13.390;2023-04-21T05:54:49;32.11;;;22.23;;
56680;SDS011;42558;52.388;13.390;2023-04-21T05:57:19;32.49;;;22.04;;
56680;SDS011;42558;52.388;13.390;2023-04-21T05:59:48;36.48;;;21.66;;
56680;SDS011;42558;52.388;13.390;2023-04-21T06:02:18;33.06;;;22.04;;
56680;SDS011;42558;52.388;13.390;2023-04-21T06:04:48;31.35;;;21.28;;
56680;SDS011;42558;52.388;13.390;2023-04-21T06:07:19;32.30;;;21.85;;
56680;SDS011;42558;52.388;13.390;2023-04-21T06:09:49;29.83;;;20.90;;
56680;SDS011;42558;52.388;13.390;2023-04-21T06:12:19;34.77;;;21.09;;
56680;SDS011;42558;52.388;13.390;2023-04-21T06:14:49;28.50;;;20.90;;
56680;SDS011;42558;52.388;13.390;2023-04-21T06:17:18;32.49;;;21.47;;
56680;SDS011;42558;52.388;13.390;2023-04-21T06:19:49;27.93;;;20.33;;
56680;SDS011;42558;52.388;13.390;2023-04-21T06:22:24;34.39;;;23.18;;
56680;SDS011;42558;52.388;13.390;2023-04-21T06:24:51;31.35;;;22.04;;
56680;SDS011;42558;52.388;13.390;2023-04-21T06:27:21;31.35;;;21.66;;
56680;SDS011;42558;52.388;13.390;2023-04-21T06:29:54;29.64;;;20.90;;
56680;SDS011;42558;52.388;13.390;2023-04-21T06:32:22;29.45;;;20.33;;
56680;SDS011;42558;52.388;13.390;2023-04-21T06:34:51;27.36;;;20.71;;
56680;SDS011;42558;52.388;13.390;2023-04-21T06:37:19;31.54;;;20.52;;
56680;SDS011;42558;52.388;13.390;2023-04-21T06:39:48;29.64;;;20.33;;
56680;SDS011;42558;52.388;13.390;2023-04-21T06:42:16;34.39;;;21.28;;
56680;SDS011;42558;52.388;13.390;2023-04-21T06:44:44;24.70;;;19.38;;
56680;SDS011;42558;52.388;13.390;2023-04-21T06:47:16;30.78;;;19.38;;
56680;SDS011;42558;52.388;13.390;2023-04-21T06:49:44;30.40;;;20.33;;
56680;SDS011;42558;52.388;13.390;2023-04-21T06:52:13;25.27;;;17.86;;
56680;SDS011;42558;52.388;13.390;2023-04-21T06:54:41;28.69;;;21.28;;
56680;SDS011;42558;52.388;13.390;2023-04-21T06:57:10;26.79;;;19.19;;
56680;SDS011;42558;52.388;13.390;2023-04-21T06:59:38;24.32;;;18.62;;
56680;SDS011;42558;52.388;13.390;2023-04-21T07:02:06;33.06;;;20.52;;
56680;SDS011;42558;52.388;13.390;2023-04-21T07:04:35;29.26;;;18.05;;
56680;SDS011;42558;52.388;13.390;2023-04-21T07:07:03;26.03;;;19.19;;
56680;SDS011;42558;52.388;13.390;2023-04-21T07:09:32;23.56;;;17.29;;
56680;SDS011;42558;52.388;13.390;2023-04-21T07:12:00;28.12;;;20.14;;
56680;SDS011;42558;52.388;13.390;2023-04-21T07:14:29;28.12;;;19.95;;
56680;SDS011;42558;52.388;13.390;2023-04-21T07:16:57;26.98;;;19.95;;
56680;SDS011;42558;52.388;13.390;2023-04-21T07:19:25;29.45;;;19.76;;
56680;SDS011;42558;52.388;13.390;2023-04-21T07:21:54;28.12;;;19.00;;
56680;SDS011;42558;52.388;13.390;2023-04-21T07:24:22;29.45;;;19.76;;
56680;SDS011;42558;52.388;13.390;2023-04-21T07:26:51;27.36;;;19.38;;
56680;SDS011;42558;52.388;13.390;2023-04-21T07:29:19;25.08;;;18.05;;
56680;SDS011;42558;52.388;13.390;2023-04-21T07:31:47;25.65;;;18.81;;
56680;SDS011;42558;52.388;13.390;2023-04-21T07:34:16;27.36;;;19.76;;
56680;SDS011;42558;52.388;13.390;2023-04-21T07:36:44;23.18;;;18.24;;
56680;SDS011;42558;52.388;13.390;2023-04-21T07:39:13;27.17;;;18.62;;
56680;SDS011;42558;52.388;13.390;2023-04-21T07:41:41;24.89;;;17.67;;
56680;SDS011;42558;52.388;13.390;2023-04-21T07:44:10;27.17;;;19.38;;
56680;SDS011;42558;52.388;13.390;2023-04-21T07:46:38;27.17;;;17.48;;
56680;SDS011;42558;52.388;13.390;2023-04-21T07:49:07;28.31;;;19.57;;
56680;SDS011;42558;52.388;13.390;2023-04-21T07:51:35;23.37;;;16.53;;
56680;SDS011;42558;52.388;13.390;2023-04-21T07:54:03;25.27;;;17.67;;
56680;SDS011;42558;52.388;13.390;2023-04-21T07:56:32;25.08;;;18.43;;
56680;SDS011;42558;52.388;13.390;2023-04-21T07:59:00;24.51;;;17.48;;
56680;SDS011;42558;52.388;13.390;2023-04-21T08:01:29;24.89;;;18.43;;
56680;SDS011;42558;52.388;13.390;2023-04-21T08:03:57;23.94;;;18.43;;
56680;SDS011;42558;52.388;13.390;2023-04-21T08:06:26;24.51;;;17.10;;
56680;SDS011;42558;52.388;13.390;2023-04-21T08:08:54;22.99;;;17.29;;
56680;SDS011;42558;52.388;13.390;2023-04-21T08:11:22;23.56;;;17.67;;
56680;SDS011;42558;52.388;13.390;2023-04-21T08:13:51;23.94;;;17.48;;
56680;SDS011;42558;52.388;13.390;2023-04-21T08:16:19;24.70;;;16.91;;
56680;SDS011;42558;52.388;13.390;2023-04-21T08:18:48;23.37;;;18.05;;
56680;SDS011;42558;52.388;13.390;2023-04-21T08:21:16;22.99;;;17.86;;
56680;SDS011;42558;52.388;13.390;2023-04-21T08:23:45;22.61;;;16.34;;
56680;SDS011;42558;52.388;13.390;2023-04-21T08:26:13;24.70;;;18.05;;
56680;SDS011;42558;52.388;13.390;2023-04-21T08:28:41;23.37;;;16.72;;
56680;SDS011;42558;52.388;13.390;2023-04-21T08:31:10;19.95;;;16.15;;
56680;SDS011;42558;52.388;13.390;2023-04-21T08:33:38;25.27;;;16.15;;
56680;SDS011;42558;52.388;13.390;2023-04-21T08:36:27;21.85;;;15.96;;
56680;SDS011;42558;52.388;13.390;2023-04-21T08:38:59;20.52;;;15.39;;
56680;SDS011;42558;52.388;13.390;2023-04-21T08:41:30;23.56;;;15.96;;
56680;SDS011;42558;52.388;13.390;2023-04-21T08:44:00;21.66;;;16.15;;
56680;SDS011;42558;52.388;13.390;2023-04-21T08:46:30;20.71;;;16.34;;
56680;SDS011;42558;52.388;13.390;2023-04-21T08:49:02;18.62;;;14.06;;
56680;SDS011;42558;52.388;13.390;2023-04-21T08:51:33;25.27;;;16.34;;
56680;SDS011;42558;52.388;13.390;2023-04-21T08:54:03;21.47;;;15.58;;
56680;SDS011;42558;52.388;13.390;2023-04-21T08:56:33;23.56;;;16.15;;
56680;SDS011;42558;52.388;13.390;2023-04-21T08:59:03;20.90;;;15.39;;
56680;SDS011;42558;52.388;13.390;2023-04-21T09:04:46;20.52;;;16.34;;
56680;SDS011;42558;52.388;13.390;2023-04-21T09:07:31;22.04;;;15.39;;
56680;SDS011;42558;52.388;13.390;2023-04-21T09:10:04;22.80;;;15.96;;
56680;SDS011;42558;52.388;13.390;2023-04-21T09:12:37;19.19;;;14.44;;
56680;SDS011;42558;52.388;13.390;2023-04-21T09:15:09;19.38;;;13.68;;
56680;SDS011;42558;52.388;13.390;2023-04-21T09:17:44;20.52;;;15.01;;
56680;SDS011;42558;52.388;13.390;2023-04-21T09:20:16;18.62;;;14.63;;
56680;SDS011;42558;52.388;13.390;2023-04-21T09:22:48;17.86;;;13.49;;
56680;SDS011;42558;52.388;13.390;2023-04-21T09:25:21;19.76;;;14.44;;
56680;SDS011;42558;52.388;13.390;2023-04-21T09:27:53;20.90;;;13.68;;
56680;SDS011;42558;52.388;13.390;2023-04-21T09:30:24;19.00;;;14.63;;
56680;SDS011;42558;52.388;13.390;2023-04-21T09:32:55;21.66;;;14.44;;
56680;SDS011;42558;52.388;13.390;2023-04-21T09:35:27;19.95;;;14.25;;
56680;SDS011;42558;52.388;13.390;2023-04-21T09:38:00;19.00;;;15.39;;
56680;SDS011;42558;52.388;13.390;2023-04-21T09:40:31;17.86;;;13.11;;
56680;SDS011;42558;52.388;13.390;2023-04-21T09:43:03;19.00;;;14.06;;
56680;SDS011;42558;52.388;13.390;2023-04-21T09:45:34;24.89;;;15.01;;
56680;SDS011;42558;52.388;13.390;2023-04-21T09:48:11;21.09;;;13.30;;
56680;SDS011;42558;52.388;13.390;2023-04-21T09:50:45;15.96;;;13.11;;
56680;SDS011;42558;52.388;13.390;2023-04-21T09:53:20;16.15;;;12.92;;
56680;SDS011;42558;52.388;13.390;2023-04-21T09:55:57;20.33;;;14.25;;
56680;SDS011;42558;52.388;13.390;2023-04-21T09:58:31;16.91;;;12.92;;
56680;SDS011;42558;52.388;13.390;2023-04-21T10:01:09;16.72;;;14.25;;
56680;SDS011;42558;52.388;13.390;2023-04-21T10:03:42;19.57;;;14.82;;
56680;SDS011;42558;52.388;13.390;2023-04-21T10:06:15;16.72;;;13.68;;
56680;SDS011;42558;52.388;13.390;2023-04-21T10:08:46;19.57;;;14.44;;
56680;SDS011;42558;52.388;13.390;2023-04-21T10:11:16;19.95;;;15.01;;
56680;SDS011;42558;52.388;13.390;2023-04-21T10:13:47;19.57;;;14.63;;
56680;SDS011;42558;52.388;13.390;2023-04-21T10:16:17;21.28;;;15.01;;
56680;SDS011;42558;52.388;13.390;2023-04-21T10:18:48;23.75;;;14.82;;
56680;SDS011;42558;52.388;13.390;2023-04-21T10:21:18;18.05;;;15.01;;
56680;SDS011;42558;52.388;13.390;2023-04-21T10:23:51;18.24;;;14.06;;
56680;SDS011;42558;52.388;13.390;2023-04-21T10:26:31;16.34;;;14.82;;
56680;SDS011;42558;52.388;13.390;2023-04-21T10:29:04;19.38;;;13.87;;
56680;SDS011;42558;52.388;13.390;2023-04-21T10:31:36;20.71;;;15.77;;
56680;SDS011;42558;52.388;13.390;2023-04-21T10:34:21;17.29;;;14.25;;
56680;SDS011;42558;52.388;13.390;2023-04-21T10:39:36;17.67;;;14.44;;
56680;SDS011;42558;52.388;13.390;2023-04-21T10:47:46;20.33;;;15.20;;
56680;SDS011;42558;52.388;13.390;2023-04-21T10:50:21;15.77;;;13.11;;
56680;SDS011;42558;52.388;13.390;2023-04-21T10:53:06;19.76;;;14.63;;
56680;SDS011;42558;52.388;13.390;2023-04-21T10:55:40;18.05;;;15.58;;
56680;SDS011;42558;52.388;13.390;2023-04-21T10:58:10;16.34;;;14.44;;
56680;SDS011;42558;52.388;13.390;2023-04-21T11:00:40;17.48;;;13.87;;
56680;SDS011;42558;52.388;13.390;2023-04-21T11:03:10;16.91;;;12.92;;
56680;SDS011;42558;52.388;13.390;2023-04-21T11:05:40;18.43;;;14.06;;
56680;SDS011;42558;52.388;13.390;2023-04-21T11:08:14;17.67;;;13.68;;
56680;SDS011;42558;52.388;13.390;2023-04-21T11:10:45;17.29;;;13.68;;
56680;SDS011;42558;52.388;13.390;2023-04-21T11:13:16;18.62;;;13.68;;
56680;SDS011;42558;52.388;13.390;2023-04-21T11:16:00;17.67;;;13.68;;
56680;SDS011;42558;52.388;13.390;2023-04-21T11:18:42;19.76;;;13.68;;
56680;SDS011;42558;52.388;13.390;2023-04-21T11:21:15;16.91;;;13.11;;
56680;SDS011;42558;52.388;13.390;2023-04-21T11:23:54;18.05;;;12.92;;
56680;SDS011;42558;52.388;13.390;2023-04-21T11:26:34;16.91;;;13.87;;
56680;SDS011;42558;52.388;13.390;2023-04-21T11:29:07;19.76;;;14.06;;
56680;SDS011;42558;52.388;13.390;2023-04-21T11:31:42;19.38;;;13.11;;
56680;SDS011;42558;52.388;13.390;2023-04-21T11:34:15;17.67;;;13.30;;
56680;SDS011;42558;52.388;13.390;2023-04-21T11:36:47;19.95;;;13.87;;
56680;SDS011;42558;52.388;13.390;2023-04-21T11:39:18;14.82;;;11.78;;
56680;SDS011;42558;52.388;13.390;2023-04-21T11:41:51;18.24;;;13.49;;
56680;SDS011;42558;52.388;13.390;2023-04-21T11:44:37;17.10;;;13.68;;
56680;SDS011;42558;52.388;13.390;2023-04-21T11:47:19;17.29;;;13.49;;
56680;SDS011;42558;52.388;13.390;2023-04-21T11:50:00;17.86;;;13.49;;
56680;SDS011;42558;52.388;13.390;2023-04-21T11:52:32;18.62;;;14.44;;
56680;SDS011;42558;52.388;13.390;2023-04-21T11:55:10;18.81;;;14.44;;
56680;SDS011;42558;52.388;13.390;2023-04-21T11:57:48;16.34;;;14.63;;
56680;SDS011;42558;52.388;13.390;2023-04-21T12:00:19;19.00;;;14.25;;
56680;SDS011;42558;52.388;13.390;2023-04-21T12:02:54;15.39;;;13.68;;
56680;SDS011;42558;52.388;13.390;2023-04-21T12:05:22;17.67;;;13.30;;
56680;SDS011;42558;52.388;13.390;2023-04-21T12:07:54;17.67;;;14.25;;
56680;SDS011;42558;52.388;13.390;2023-04-21T12:10:24;22.99;;;15.20;;
56680;SDS011;42558;52.388;13.390;2023-04-21T12:12:55;17.86;;;13.11;;
56680;SDS011;42558;52.388;13.390;2023-04-21T12:15:24;19.00;;;15.20;;
56680;SDS011;42558;52.388;13.390;2023-04-21T12:17:54;15.77;;;12.73;;
56680;SDS011;42558;52.388;13.390;2023-04-21T12:20:28;16.72;;;12.73;;
56680;SDS011;42558;52.388;13.390;2023-04-21T12:22:57;16.34;;;11.78;;
56680;SDS011;42558;52.388;13.390;2023-04-21T12:25:27;16.15;;;12.73;;
56680;SDS011;42558;52.388;13.390;2023-04-21T12:27:57;20.14;;;14.44;;
56680;SDS011;42558;52.388;13.390;2023-04-21T12:30:27;21.47;;;13.49;;
56680;SDS011;42558;52.388;13.390;2023-04-21T12:32:57;18.62;;;13.11;;
56680;SDS011;42558;52.388;13.390;2023-04-21T12:35:27;18.24;;;12.92;;
56680;SDS011;42558;52.388;13.390;2023-04-21T12:37:57;17.10;;;14.06;;
56680;SDS011;42558;52.388;13.390;2023-04-21T12:40:27;18.05;;;14.06;;
56680;SDS011;42558;52.388;13.390;2023-04-21T12:42:57;18.81;;;13.68;;
56680;SDS011;42558;52.388;13.390;2023-04-21T12:45:26;16.91;;;12.54;;
56680;SDS011;42558;52.388;13.390;2023-04-21T12:47:56;16.15;;;13.87;;
56680;SDS011;42558;52.388;13.390;2023-04-21T12:50:26;19.76;;;12.73;;
56680;SDS011;42558;52.388;13.390;2023-04-21T12:52:57;16.91;;;11.40;;
56680;SDS011;42558;52.388;13.390;2023-04-21T12:55:27;16.72;;;13.49;;
56680;SDS011;42558;52.388;13.390;2023-04-21T12:57:57;16.34;;;12.73;;
56680;SDS011;42558;52.388;13.390;2023-04-21T13:00:27;18.81;;;14.06;;
56680;SDS011;42558;52.388;13.390;2023-04-21T13:02:57;18.05;;;13.30;;
56680;SDS011;42558;52.388;13.390;2023-04-21T13:05:27;15.77;;;11.78;;
56680;SDS011;42558;52.388;13.390;2023-04-21T13:07:57;16.15;;;12.54;;
56680;SDS011;42558;52.388;13.390;2023-04-21T13:10:25;15.96;;;12.73;;
56680;SDS011;42558;52.388;13.390;2023-04-21T13:12:53;16.53;;;12.16;;
56680;SDS011;42558;52.388;13.390;2023-04-21T13:15:22;16.34;;;11.97;;
56680;SDS011;42558;52.388;13.390;2023-04-21T13:17:50;16.15;;;11.97;;
56680;SDS011;42558;52.388;13.390;2023-04-21T13:20:19;13.68;;;12.35;;
56680;SDS011;42558;52.388;13.390;2023-04-21T13:22:50;16.91;;;11.97;;
56680;SDS011;42558;52.388;13.390;2023-04-21T13:25:19;15.58;;;11.78;;
56680;SDS011;42558;52.388;13.390;2023-04-21T13:27:47;16.34;;;12.54;;
56680;SDS011;42558;52.388;13.390;2023-04-21T13:30:15;15.96;;;11.97;;
56680;SDS011;42558;52.388;13.390;2023-04-21T13:32:44;16.15;;;11.40;;
56680;SDS011;42558;52.388;13.390;2023-04-21T13:35:12;17.29;;;11.78;;
56680;SDS011;42558;52.388;13.390;2023-04-21T13:37:41;17.10;;;12.16;;
56680;SDS011;42558;52.388;13.390;2023-04-21T13:40:10;15.20;;;12.54;;
56680;SDS011;42558;52.388;13.390;2023-04-21T13:42:38;15.96;;;12.16;;
56680;SDS011;42558;52.388;13.390;2023-04-21T13:45:06;14.44;;;11.40;;
56680;SDS011;42558;52.388;13.390;2023-04-21T13:47:34;13.87;;;11.59;;
56680;SDS011;42558;52.388;13.390;2023-04-21T13:50:04;15.01;;;12.16;;
56680;SDS011;42558;52.388;13.390;2023-04-21T13:52:31;14.44;;;11.59;;
56680;SDS011;42558;52.388;13.390;2023-04-21T13:55:03;16.91;;;11.97;;
56680;SDS011;42558;52.388;13.390;2023-04-21T13:57:34;17.10;;;12.35;;
56680;SDS011;42558;52.388;13.390;2023-04-21T14:00:05;13.87;;;11.59;;
56680;SDS011;42558;52.388;13.390;2023-04-21T14:02:38;13.87;;;12.16;;
56680;SDS011;42558;52.388;13.390;2023-04-21T14:05:09;15.58;;;12.16;;
56680;SDS011;42558;52.388;13.390;2023-04-21T14:07:40;18.81;;;11.59;;
56680;SDS011;42558;52.388;13.390;2023-04-21T14:10:11;21.28;;;13.11;;
56680;SDS011;42558;52.388;13.390;2023-04-21T14:12:41;17.86;;;11.78;;
56680;SDS011;42558;52.388;13.390;2023-04-21T14:15:13;17.29;;;11.02;;
56680;SDS011;42558;52.388;13.390;2023-04-21T14:17:43;17.86;;;12.35;;
56680;SDS011;42558;52.388;13.390;2023-04-21T14:20:13;15.96;;;11.40;;
56680;SDS011;42558;52.388;13.390;2023-04-21T14:22:43;15.01;;;11.02;;
56680;SDS011;42558;52.388;13.390;2023-04-21T14:25:14;13.11;;;11.59;;
56680;SDS011;42558;52.388;13.390;2023-04-21T14:27:43;12.54;;;11.02;;
56680;SDS011;42558;52.388;13.390;2023-04-21T14:30:14;15.20;;;11.59;;
56680;SDS011;42558;52.388;13.390;2023-04-21T14:32:44;19.00;;;10.45;;
56680;SDS011;42558;52.388;13.390;2023-04-21T14:35:14;15.58;;;11.97;;
56680;SDS011;42558;52.388;13.390;2023-04-21T14:37:44;15.58;;;11.02;;